Time;durP1;ratioP1;P1;durP2;ratioP2;P2;SDS_P1;SDS_P2;PMS_P1;PMS_P2;Temp;Humidity;BMP_temperature;BMP_pressure;BME280_temperature;BME280_humidity;BME280_pressure;Samples;Min_cycle;Max_cycle;Signal;HPM_P1;HPM_P2
2022/01/11 00:02:16;;;;;;;17.08;4.88;;;;;;;17.25;44.67;102105.03;5054254;28;20052;-78
2022/01/11 00:04:41;;;;;;;17.83;5.45;;;;;;;17.18;44.85;102111.03;5036355;28;20017;-78
2022/01/11 00:07:11;;;;;;;19.45;6.10;;;;;;;17.20;44.72;102115.09;5036197;28;20032;-78
2022/01/11 00:09:42;;;;;;;22.33;6.55;;;;;;;17.13;44.91;102116.72;5036236;28;20028;-78
2022/01/11 00:12:09;;;;;;;24.98;6.50;;;;;;;17.00;45.17;102121.25;5036107;28;20403;-77
2022/01/11 00:14:36;;;;;;;17.45;5.88;;;;;;;17.07;44.72;102127.09;5036094;28;20446;-77
2022/01/11 00:17:02;;;;;;;15.32;6.05;;;;;;;17.02;44.95;102134.75;5053955;28;20068;-78
2022/01/11 00:19:29;;;;;;;20.23;5.55;;;;;;;16.99;44.86;102138.94;5054090;28;20017;-78
2022/01/11 00:21:56;;;;;;;17.77;5.07;;;;;;;16.93;44.86;102145.78;5053933;28;20020;-77
2022/01/11 00:24:29;;;;;;;11.93;4.40;;;;;;;16.95;44.81;102149.03;5053557;28;20120;-77
2022/01/11 00:27:06;;;;;;;20.45;5.78;;;;;;;17.00;44.55;102150.81;5036062;28;20048;-77
2022/01/11 00:29:34;;;;;;;14.38;5.93;;;;;;;16.99;44.43;102160.22;5034232;28;20434;-78
2022/01/11 00:32:08;;;;;;;21.73;5.47;;;;;;;16.92;44.81;102164.28;5052588;28;20065;-77
2022/01/11 00:34:55;;;;;;;21.65;5.40;;;;;;;16.90;44.76;102158.25;5035787;28;20025;-78
2022/01/11 00:37:21;;;;;;;13.30;4.55;;;;;;;16.68;45.30;102174.09;5053612;28;20563;-77
2022/01/11 00:39:50;;;;;;;19.17;5.15;;;;;;;16.78;45.09;102177.41;5053585;28;20033;-77
2022/01/11 00:42:18;;;;;;;18.27;4.68;;;;;;;16.63;45.34;102180.56;5053478;28;20112;-78
2022/01/11 00:44:43;;;;;;;14.75;4.70;;;;;;;16.69;44.79;102178.47;5035452;28;20432;-78
2022/01/11 00:47:09;;;;;;;12.32;4.50;;;;;;;16.64;44.85;102183.00;5053361;28;20071;-78
2022/01/11 00:49:36;;;;;;;18.42;6.00;;;;;;;16.64;44.89;102184.97;5053359;28;20032;-77
2022/01/11 00:52:02;;;;;;;14.52;5.45;;;;;;;16.68;44.62;102179.59;5035274;28;20029;-77
2022/01/11 00:54:28;;;;;;;16.67;5.18;;;;;;;16.64;44.90;102193.25;5053334;28;20029;-77
2022/01/11 00:56:53;;;;;;;14.63;4.93;;;;;;;16.62;44.62;102204.59;5053153;28;20021;-78
2022/01/11 00:59:19;;;;;;;16.05;5.32;;;;;;;16.50;44.85;102212.66;5053098;28;20028;-77
2022/01/11 01:01:45;;;;;;;15.68;4.93;;;;;;;16.53;44.83;102212.00;5053117;28;20036;-77
2022/01/11 01:04:11;;;;;;;14.43;4.70;;;;;;;16.55;44.77;102215.28;5053068;28;20108;-77
2022/01/11 01:06:39;;;;;;;18.83;5.10;;;;;;;16.46;44.74;102222.69;5052953;28;20382;-77
2022/01/11 01:09:05;;;;;;;16.52;4.65;;;;;;;16.45;44.66;102225.75;5052218;28;20495;-77
2022/01/11 01:11:32;;;;;;;21.30;5.40;;;;;;;16.40;44.77;102223.97;5052844;28;20068;-78
2022/01/11 01:13:58;;;;;;;12.25;4.60;;;;;;;16.50;44.33;102226.44;5053017;28;20129;-79
2022/01/11 01:16:24;;;;;;;13.52;4.75;;;;;;;16.45;44.32;102217.47;5052899;28;20519;-77
2022/01/11 01:18:50;;;;;;;21.88;5.75;;;;;;;16.34;44.65;102228.81;5052822;28;20059;-77
2022/01/11 01:21:16;;;;;;;11.05;4.22;;;;;;;16.30;44.75;102226.97;5052675;28;20023;-77
2022/01/11 01:23:42;;;;;;;17.42;6.18;;;;;;;16.34;44.54;102228.81;5052462;28;20151;-77
2022/01/11 01:26:07;;;;;;;15.27;5.20;;;;;;;16.29;44.53;102233.63;5052741;28;20112;-78
2022/01/11 01:28:33;;;;;;;13.88;4.90;;;;;;;16.29;44.33;102250.19;5052706;28;20020;-83
2022/01/11 01:31:01;;;;;;;18.92;5.75;;;;;;;16.31;44.40;102242.38;5052535;28;20025;-79
2022/01/11 01:33:32;;;;;;;15.05;5.03;;;;;;;16.21;44.45;102248.19;5052628;28;20017;-80
2022/01/11 01:36:02;;;;;;;20.23;5.30;;;;;;;16.26;44.32;102253.56;5052591;28;20439;-77
2022/01/11 01:38:29;;;;;;;15.43;4.82;;;;;;;16.22;44.34;102249.81;5052643;28;20021;-77
2022/01/11 01:41:02;;;;;;;16.05;4.57;;;;;;;16.09;44.55;102257.81;5052557;28;20090;-77
2022/01/11 01:43:28;;;;;;;21.77;6.07;;;;;;;16.13;44.51;102259.97;5052541;28;20497;-78
2022/01/11 01:45:58;;;;;;;31.00;5.63;;;;;;;16.12;44.59;102248.13;5052567;28;20021;-78
2022/01/11 01:48:23;;;;;;;20.40;4.40;;;;;;;16.00;44.64;102248.69;5052508;28;20360;-78
2022/01/11 01:50:51;;;;;;;16.05;5.63;;;;;;;16.07;44.48;102259.28;5052376;28;20040;-80
2022/01/11 01:53:16;;;;;;;20.60;6.32;;;;;;;16.11;44.53;102270.50;5052400;28;20025;-77
2022/01/11 01:55:44;;;;;;;27.27;6.60;;;;;;;16.08;44.38;102267.22;5052408;28;20104;-77
2022/01/11 01:58:11;;;;;;;17.65;5.30;;;;;;;15.99;44.61;102280.13;5052381;28;20024;-77
2022/01/11 02:00:42;;;;;;;27.88;6.90;;;;;;;16.04;44.65;102293.81;5034510;28;20499;-77
2022/01/11 02:03:13;;;;;;;18.65;5.68;;;;;;;16.03;44.64;102300.44;5052394;28;20479;-77
2022/01/11 02:05:40;;;;;;;12.70;4.43;;;;;;;16.05;44.51;102295.44;5052349;28;20640;-77
2022/01/11 02:08:08;;;;;;;16.48;4.78;;;;;;;15.97;44.57;102289.84;5052256;28;20417;-77
2022/01/11 02:10:37;;;;;;;17.83;4.57;;;;;;;16.02;44.33;102296.06;5052235;28;20029;-77
2022/01/11 02:13:04;;;;;;;17.65;4.85;;;;;;;15.98;44.38;102303.31;5052329;28;20433;-78
2022/01/11 02:15:30;;;;;;;21.20;5.55;;;;;;;16.09;44.27;102306.63;5052456;28;20053;-77
2022/01/11 02:18:16;;;;;;;28.23;5.38;;;;;;;16.07;44.14;102304.19;5052238;28;20048;-77
2022/01/11 02:20:45;;;;;;;24.17;5.47;;;;;;;15.98;44.31;102300.56;5055310;28;20032;-78
2022/01/11 02:23:11;;;;;;;15.55;4.22;;;;;;;16.00;44.20;102311.28;5056001;28;20080;-82
2022/01/11 02:25:38;;;;;;;19.02;5.28;;;;;;;15.87;44.33;102307.44;5038158;28;20025;-77
2022/01/11 02:28:04;;;;;;;16.05;5.22;;;;;;;15.88;44.42;102311.03;5056009;28;20021;-77
2022/01/11 02:30:33;;;;;;;18.45;5.05;;;;;;;15.92;44.11;102299.03;5055902;28;20025;-78
2022/01/11 02:32:59;;;;;;;16.30;4.15;;;;;;;15.91;44.16;102305.69;5055919;28;20051;-77
2022/01/11 02:35:25;;;;;;;17.88;5.15;;;;;;;15.90;44.22;102309.56;5055961;28;20033;-77
2022/01/11 02:37:51;;;;;;;28.92;7.63;;;;;;;15.86;44.35;102311.31;5055832;28;20587;-77
2022/01/11 02:40:18;;;;;;;16.95;4.95;;;;;;;15.82;44.31;102324.09;5055814;28;20104;-77
2022/01/11 02:42:43;;;;;;;19.88;5.75;;;;;;;15.67;44.65;102332.69;5037835;28;20037;-77
2022/01/11 02:45:17;;;;;;;22.45;5.07;;;;;;;15.70;44.48;102341.16;5055644;28;20033;-78
2022/01/11 02:47:45;;;;;;;16.30;5.15;;;;;;;15.71;44.56;102342.78;5055725;28;20029;-78
2022/01/11 02:50:12;;;;;;;19.95;5.68;;;;;;;15.72;44.40;102346.38;5055706;28;20029;-77
2022/01/11 02:52:38;;;;;;;15.48;4.90;;;;;;;15.71;44.38;102347.47;5055541;28;20036;-78
2022/01/11 02:55:10;;;;;;;20.02;5.80;;;;;;;15.72;44.50;102347.19;5055491;28;20033;-78
2022/01/11 02:57:36;;;;;;;14.00;4.50;;;;;;;15.74;44.31;102355.97;5055554;28;20025;-77
2022/01/11 03:00:11;;;;;;;19.55;4.72;;;;;;;15.64;44.53;102355.34;5055531;28;20067;-78
2022/01/11 03:02:37;;;;;;;25.73;5.97;;;;;;;15.63;44.69;102353.72;5055345;28;20082;-77
2022/01/11 03:05:07;;;;;;;13.80;4.80;;;;;;;15.71;44.47;102350.22;5055376;28;20033;-78
2022/01/11 03:07:33;;;;;;;20.75;5.22;;;;;;;15.92;44.00;102359.69;5055370;28;20039;-77
2022/01/11 03:10:03;;;;;;;20.95;5.22;;;;;;;16.01;43.44;102360.59;5055304;28;20049;-78
2022/01/11 03:12:30;;;;;;;23.77;5.95;;;;;;;16.09;43.33;102367.31;5055174;28;20112;-78
2022/01/11 03:14:56;;;;;;;15.68;5.10;;;;;;;15.99;43.55;102357.31;5055088;28;20032;-81
2022/01/11 03:17:22;;;;;;;21.40;5.50;;;;;;;16.00;43.61;102364.47;5055199;28;20031;-78
2022/01/11 03:19:48;;;;;;;20.02;4.85;;;;;;;15.96;43.51;102368.19;5055028;28;20448;-78
2022/01/11 03:22:14;;;;;;;21.90;4.93;;;;;;;15.82;43.91;102368.19;5055049;28;20033;-80
2022/01/11 03:24:39;;;;;;;23.15;5.85;;;;;;;15.89;43.45;102371.34;5054828;28;20052;-78
2022/01/11 03:27:07;;;;;;;19.55;5.35;;;;;;;15.86;43.71;102368.38;5054976;28;20096;-78
2022/01/11 03:29:34;;;;;;;22.55;5.75;;;;;;;15.79;43.79;102375.16;5054908;28;20060;-78
2022/01/11 03:32:00;;;;;;;14.25;4.38;;;;;;;15.74;43.88;102382.72;5053803;28;20029;-77
2022/01/11 03:34:25;;;;;;;15.40;5.32;;;;;;;15.77;43.83;102388.41;5054723;28;20059;-78
2022/01/11 03:36:51;;;;;;;14.07;4.80;;;;;;;15.64;44.00;102399.44;5054795;28;20048;-77
2022/01/11 03:39:17;;;;;;;19.67;6.40;;;;;;;15.75;43.78;102389.84;5054821;28;20025;-77
2022/01/11 03:41:42;;;;;;;20.55;6.22;;;;;;;15.72;44.13;102402.31;5054709;28;20041;-77
2022/01/11 03:44:08;;;;;;;15.23;5.22;;;;;;;15.66;43.71;102408.22;5054649;28;20104;-77
2022/01/11 03:46:34;;;;;;;18.27;5.70;;;;;;;15.70;43.87;102415.56;5053970;28;20714;-78
2022/01/11 03:48:59;;;;;;;15.05;4.32;;;;;;;15.63;43.95;102426.16;5052017;28;20056;-82
2022/01/11 03:51:25;;;;;;;13.75;4.28;;;;;;;15.55;43.98;102429.63;5053363;28;20040;-78
2022/01/11 03:54:00;;;;;;;13.55;5.32;;;;;;;15.55;44.11;102430.44;5054253;28;20021;-78
2022/01/11 03:56:26;;;;;;;18.73;4.93;;;;;;;15.58;43.96;102428.19;5054533;28;20028;-77
2022/01/11 03:58:53;;;;;;;13.07;5.00;;;;;;;15.55;44.23;102429.63;5054373;28;20048;-77
2022/01/11 04:01:20;;;;;;;17.58;5.85;;;;;;;15.53;44.09;102418.91;5054331;28;20029;-78
2022/01/11 04:03:46;;;;;;;16.20;5.47;;;;;;;15.53;44.01;102418.91;5054236;28;20025;-77
2022/01/11 04:06:16;;;;;;;26.42;6.38;;;;;;;15.39;44.29;102431.84;5054142;28;20471;-78
2022/01/11 04:08:43;;;;;;;14.48;4.47;;;;;;;15.46;44.03;102426.75;5054187;28;20017;-81
2022/01/11 04:11:08;;;;;;;24.17;6.53;;;;;;;15.48;43.80;102431.94;5054040;28;20033;-77
2022/01/11 04:13:34;;;;;;;17.40;5.10;;;;;;;15.36;44.16;102437.97;5054035;28;20089;-77
2022/01/11 04:16:00;;;;;;;23.35;5.68;;;;;;;15.29;44.34;102431.25;5054032;28;20029;-77
2022/01/11 04:18:26;;;;;;;18.77;5.30;;;;;;;15.23;44.74;102420.31;5036062;28;20029;-77
2022/01/11 04:20:52;;;;;;;18.65;6.25;;;;;;;15.27;44.47;102423.28;5053998;28;20100;-77
2022/01/11 04:23:17;;;;;;;25.27;6.90;;;;;;;15.22;44.43;102428.88;5053778;28;20041;-78
2022/01/11 04:25:43;;;;;;;22.92;6.72;;;;;;;15.23;44.30;102423.06;5053820;28;20483;-77
2022/01/11 04:28:09;;;;;;;16.92;5.68;;;;;;;15.24;44.43;102440.41;5053845;28;20029;-77
2022/01/11 04:30:35;;;;;;;16.98;5.75;;;;;;;15.33;44.28;102443.25;5053641;28;20467;-77
2022/01/11 04:33:02;;;;;;;20.35;5.30;;;;;;;15.41;43.95;102446.13;5053587;28;20104;-78
2022/01/11 04:35:28;;;;;;;12.90;5.20;;;;;;;15.52;43.93;102453.09;5053746;28;20025;-78
2022/01/11 04:37:53;;;;;;;20.30;6.75;;;;;;;15.52;43.91;102447.56;5053596;28;20137;-77
2022/01/11 04:40:19;;;;;;;19.92;6.97;;;;;;;15.53;43.66;102460.22;5053659;28;20021;-77
2022/01/11 04:42:45;;;;;;;17.08;5.82;;;;;;;15.55;43.53;102457.16;5053436;28;20136;-79
2022/01/11 04:45:14;;;;;;;13.70;5.45;;;;;;;15.54;43.58;102452.78;5053482;28;20104;-79
2022/01/11 04:47:40;;;;;;;17.00;5.95;;;;;;;15.46;43.88;102459.81;5053392;28;20025;-78
2022/01/11 04:50:09;;;;;;;18.98;7.22;;;;;;;15.37;43.92;102460.81;5053451;28;20029;-77
2022/01/11 04:52:35;;;;;;;14.80;5.78;;;;;;;15.35;44.03;102465.84;5035405;28;20507;-78
2022/01/11 04:55:00;;;;;;;17.90;6.15;;;;;;;15.35;43.87;102469.41;5053294;28;20032;-78
2022/01/11 04:57:26;;;;;;;16.45;5.55;;;;;;;15.30;44.11;102472.22;5053118;28;20025;-78
2022/01/11 04:59:51;;;;;;;17.70;5.93;;;;;;;15.33;43.93;102481.81;5035356;28;20029;-77
2022/01/11 05:02:17;;;;;;;18.55;5.15;;;;;;;15.29;43.99;102481.63;5053125;28;20021;-77
2022/01/11 05:04:43;;;;;;;18.40;5.65;;;;;;;15.33;43.82;102493.66;5053082;28;20025;-77
2022/01/11 05:07:09;;;;;;;17.73;6.82;;;;;;;15.41;43.73;102492.13;5053098;28;20032;-77
2022/01/11 05:09:35;;;;;;;21.63;6.35;;;;;;;15.30;43.79;102497.03;5052982;28;20025;-78
2022/01/11 05:12:00;;;;;;;13.55;4.95;;;;;;;15.25;43.76;102503.41;5052867;28;20092;-76
2022/01/11 05:14:26;;;;;;;27.67;6.53;;;;;;;15.29;43.71;102514.66;5052910;28;20196;-77
2022/01/11 05:16:52;;;;;;;19.13;6.18;;;;;;;15.26;43.82;102516.09;5052923;28;20390;-76
2022/01/11 05:19:18;;;;;;;19.45;6.47;;;;;;;15.29;43.78;102511.91;5052950;28;20024;-76
2022/01/11 05:21:43;;;;;;;21.75;5.57;;;;;;;15.21;43.79;102512.59;5052874;28;20025;-78
2022/01/11 05:24:11;;;;;;;18.73;5.90;;;;;;;15.21;44.09;102518.13;5052730;28;20438;-77
2022/01/11 05:26:37;;;;;;;19.42;5.35;;;;;;;15.30;43.84;102526.50;5052731;28;20647;-77
2022/01/11 05:29:03;;;;;;;18.38;4.90;;;;;;;15.28;43.53;102524.06;5052775;28;20171;-82
2022/01/11 05:31:29;;;;;;;20.98;5.18;;;;;;;15.21;44.24;102529.13;5052665;28;20082;-76
2022/01/11 05:33:55;;;;;;;22.90;6.68;;;;;;;15.03;44.43;102527.22;5052750;28;20063;-77
2022/01/11 05:36:21;;;;;;;24.23;8.60;;;;;;;15.15;44.19;102533.91;5052610;28;20052;-77
2022/01/11 05:38:46;;;;;;;22.63;7.80;;;;;;;15.16;44.01;102531.94;5052618;28;20098;-77
2022/01/11 05:41:12;;;;;;;20.33;5.90;;;;;;;15.11;44.16;102534.78;5052659;28;20039;-77
2022/01/11 05:43:38;;;;;;;14.23;5.60;;;;;;;15.05;44.05;102530.50;5052485;28;20023;-79
2022/01/11 05:46:05;;;;;;;17.08;5.53;;;;;;;15.05;44.08;102531.31;5052515;28;20479;-77
2022/01/11 05:48:32;;;;;;;25.58;6.45;;;;;;;14.99;44.23;102541.59;5052500;28;20027;-76
2022/01/11 05:50:59;;;;;;;21.67;5.45;;;;;;;14.97;44.25;102538.31;5052366;28;20364;-77
2022/01/11 05:53:26;;;;;;;23.95;6.28;;;;;;;14.93;44.22;102550.22;5052234;28;20030;-76
2022/01/11 05:55:51;;;;;;;25.30;5.35;;;;;;;14.86;44.30;102547.84;5052053;28;20067;-77
2022/01/11 05:58:17;;;;;;;16.35;5.78;;;;;;;14.84;44.21;102552.00;5052379;28;20029;-78
2022/01/11 06:00:42;;;;;;;19.30;5.65;;;;;;;14.88;44.30;102556.59;5052437;28;20025;-77
2022/01/11 06:03:08;;;;;;;20.15;7.20;;;;;;;14.81;44.30;102571.84;5051404;28;20036;-77
2022/01/11 06:05:38;;;;;;;30.17;6.32;;;;;;;14.78;44.33;102573.28;5051840;28;20033;-77
2022/01/11 06:08:04;;;;;;;24.85;6.45;;;;;;;14.81;44.34;102558.94;5052346;28;20024;-77
2022/01/11 06:10:30;;;;;;;24.33;7.13;;;;;;;14.81;44.40;102564.44;5052122;28;20376;-77
2022/01/11 06:12:56;;;;;;;28.30;7.05;;;;;;;14.75;44.47;102576.63;5052181;28;20028;-76
2022/01/11 06:15:22;;;;;;;22.98;6.38;;;;;;;14.83;44.21;102577.91;5052205;28;20021;-77
2022/01/11 06:17:47;;;;;;;20.38;6.20;;;;;;;14.87;44.10;102574.22;5052183;28;20066;-80
2022/01/11 06:20:13;;;;;;;26.70;6.65;;;;;;;14.88;44.01;102581.38;5052187;28;20021;-77
2022/01/11 06:22:39;;;;;;;20.23;6.18;;;;;;;14.76;44.13;102583.75;5051955;28;20025;-78
2022/01/11 06:25:06;;;;;;;19.35;5.97;;;;;;;14.75;44.22;102587.63;5052134;28;20051;-78
2022/01/11 06:27:33;;;;;;;23.48;6.18;;;;;;;14.67;44.20;102591.06;5034364;28;20032;-77
2022/01/11 06:29:59;;;;;;;16.65;5.55;;;;;;;14.69;44.17;102603.38;5052067;28;20083;-77
2022/01/11 06:32:25;;;;;;;20.98;6.03;;;;;;;14.43;44.75;102607.53;5051967;28;20033;-78
2022/01/11 06:34:53;;;;;;;19.25;5.65;;;;;;;14.43;44.67;102608.38;5051811;28;20036;-77
2022/01/11 06:37:19;;;;;;;13.93;6.18;;;;;;;14.35;44.86;102620.00;5051424;28;20021;-77
2022/01/11 06:39:44;;;;;;;16.23;5.05;;;;;;;14.49;44.38;102616.56;5052015;28;20029;-78
2022/01/11 06:42:10;;;;;;;26.23;5.93;;;;;;;14.43;44.31;102619.38;5052004;28;20029;-77
2022/01/11 06:44:37;;;;;;;21.20;5.90;;;;;;;14.44;44.34;102620.19;5052033;28;20383;-77
2022/01/11 06:47:03;;;;;;;19.33;6.80;;;;;;;14.34;44.55;102615.63;5051941;28;20025;-77
2022/01/11 06:49:29;;;;;;;18.52;5.60;;;;;;;14.32;44.37;102620.59;5051851;28;20036;-76
2022/01/11 06:51:54;;;;;;;19.80;6.20;;;;;;;14.26;44.54;102630.00;5051842;28;20041;-77
2022/01/11 06:54:20;;;;;;;14.32;5.30;;;;;;;14.15;44.39;102636.75;5051896;28;20029;-77
2022/01/11 06:56:46;;;;;;;12.63;5.57;;;;;;;14.14;44.31;102622.19;5033941;28;20036;-77
2022/01/11 06:59:11;;;;;;;21.10;5.03;;;;;;;14.08;44.41;102631.59;5051654;28;20029;-78
2022/01/11 07:01:38;;;;;;;17.85;6.50;;;;;;;14.03;44.61;102630.81;5051750;28;20036;-77
2022/01/11 07:04:04;;;;;;;16.63;5.95;;;;;;;14.01;44.61;102641.28;5033995;28;20372;-76
2022/01/11 07:06:29;;;;;;;13.32;4.88;;;;;;;14.00;44.51;102636.91;5052708;28;20032;-76
2022/01/11 07:08:55;;;;;;;14.43;5.72;;;;;;;14.07;44.23;102642.88;5055215;28;20028;-77
2022/01/11 07:11:23;;;;;;;17.35;5.47;;;;;;;14.06;44.30;102644.81;5056098;28;20033;-77
2022/01/11 07:13:49;;;;;;;22.75;5.43;;;;;;;14.04;44.31;102655.25;5037459;28;20454;-78
2022/01/11 07:16:14;;;;;;;22.15;4.97;;;;;;;13.99;44.48;102660.00;5055238;28;20108;-76
2022/01/11 07:18:40;;;;;;;14.65;5.47;;;;;;;14.01;44.32;102657.78;5055204;28;20024;-77
2022/01/11 07:21:06;;;;;;;22.60;5.57;;;;;;;13.93;44.42;102663.91;5055133;28;20036;-80
2022/01/11 07:23:31;;;;;;;16.60;5.30;;;;;;;13.94;44.51;102662.78;5054804;28;20052;-77
2022/01/11 07:25:57;;;;;;;21.25;5.13;;;;;;;13.88;44.54;102665.56;5053785;28;20033;-82
2022/01/11 07:28:23;;;;;;;21.73;5.13;;;;;;;13.85;44.75;102662.59;5053944;28;20029;-82
2022/01/11 07:30:50;;;;;;;19.95;5.22;;;;;;;14.02;44.06;102657.47;5054165;28;20017;-83
2022/01/11 07:33:16;;;;;;;15.18;5.28;;;;;;;13.99;44.06;102662.75;5054153;28;20522;-82
2022/01/11 07:35:42;;;;;;;20.55;4.90;;;;;;;13.95;44.35;102672.66;5053718;28;20101;-78
2022/01/11 07:38:08;;;;;;;13.02;5.75;;;;;;;13.99;44.03;102669.06;5051221;28;20048;-82
2022/01/11 07:40:33;;;;;;;15.15;4.85;;;;;;;13.96;44.30;102674.31;5054007;28;20025;-83
2022/01/11 07:42:59;;;;;;;16.20;4.57;;;;;;;14.00;44.20;102686.38;5053988;28;20021;-82
2022/01/11 07:45:25;;;;;;;21.02;5.38;;;;;;;13.99;44.16;102685.56;5053964;28;20449;-83
2022/01/11 07:47:50;;;;;;;19.02;5.15;;;;;;;13.84;44.74;102694.75;5054415;28;20100;-81
2022/01/11 07:50:16;;;;;;;15.88;5.32;;;;;;;13.94;44.23;102693.84;5054503;28;20104;-77
2022/01/11 07:52:42;;;;;;;20.42;5.40;;;;;;;13.93;44.27;102699.63;5054164;28;20417;-82
2022/01/11 07:55:08;;;;;;;18.02;5.10;;;;;;;13.91;44.18;102701.84;5036394;28;20387;-81
2022/01/11 07:57:33;;;;;;;16.30;4.93;;;;;;;13.94;44.21;102715.00;5036023;28;20032;-81
2022/01/11 07:59:59;;;;;;;21.52;5.20;;;;;;;13.86;44.17;102714.50;5035429;28;20016;-78
2022/01/11 08:02:24;;;;;;;16.25;4.82;;;;;;;13.84;44.05;102708.50;5035516;28;20036;-80
2022/01/11 08:04:53;;;;;;;15.40;4.88;;;;;;;13.80;44.19;102714.84;5052904;28;20430;-78
2022/01/11 08:07:18;;;;;;;13.93;4.47;;;;;;;13.75;44.25;102718.47;5053245;28;20028;-77
2022/01/11 08:09:44;;;;;;;15.63;4.45;;;;;;;13.72;44.53;102716.25;5035050;28;20029;-77
2022/01/11 08:12:10;;;;;;;19.25;5.00;;;;;;;13.69;44.41;102727.03;5052682;28;20568;-77
2022/01/11 08:14:36;;;;;;;13.55;4.05;;;;;;;13.79;44.52;102733.25;5053909;28;20104;-79
2022/01/11 08:17:01;;;;;;;16.33;5.43;;;;;;;13.79;44.41;102738.75;5035681;28;20021;-77
2022/01/11 08:19:27;;;;;;;8.95;3.72;;;;;;;13.83;44.45;102742.56;5053766;28;20017;-85
2022/01/11 08:21:54;;;;;;;23.92;5.53;;;;;;;13.80;44.56;102750.56;5052689;28;20025;-72
2022/01/11 08:24:22;;;;;;;16.80;5.15;;;;;;;13.74;44.56;102759.94;5032425;28;20075;-72
2022/01/11 08:26:49;;;;;;;18.80;5.65;;;;;;;13.65;44.85;102754.22;5050565;28;20476;-74
2022/01/11 08:29:15;;;;;;;19.63;5.57;;;;;;;13.69;44.85;102758.06;5051793;28;20448;-74
2022/01/11 08:31:40;;;;;;;17.38;4.90;;;;;;;13.64;44.80;102738.03;5052991;28;20071;-74
2022/01/11 08:34:11;;;;;;;14.10;4.88;;;;;;;13.72;44.69;102768.47;5033498;28;20056;-74
2022/01/11 08:36:38;;;;;;;16.92;4.55;;;;;;;13.64;44.72;102777.31;5037296;28;20480;-74
2022/01/11 08:39:03;;;;;;;14.18;4.88;;;;;;;13.73;44.53;102789.34;5036475;28;20110;-74
2022/01/11 08:41:29;;;;;;;17.40;5.63;;;;;;;13.78;44.40;102788.50;5017776;28;20438;-74
2022/01/11 08:43:55;;;;;;;17.77;5.43;;;;;;;13.72;44.75;102790.44;5036102;28;20013;-74
2022/01/11 08:46:20;;;;;;;16.88;5.05;;;;;;;13.71;44.56;102804.47;5017841;28;20112;-74
2022/01/11 08:48:46;;;;;;;14.85;4.30;;;;;;;13.63;44.89;102805.88;5036907;28;20479;-74
2022/01/11 08:51:11;;;;;;;18.30;5.47;;;;;;;13.67;44.69;102817.13;5037731;28;20021;-75
2022/01/11 08:53:37;;;;;;;17.95;4.85;;;;;;;13.58;44.81;102825.94;5037263;28;20052;-79
2022/01/11 08:56:03;;;;;;;22.08;5.35;;;;;;;13.60;44.73;102831.16;5037782;28;20021;-79
2022/01/11 08:58:29;;;;;;;17.42;4.28;;;;;;;13.63;44.89;102830.59;5050388;28;20028;-73
2022/01/11 09:00:55;;;;;;;16.60;5.03;;;;;;;13.62;44.85;102834.47;5053105;28;20103;-74
2022/01/11 09:03:23;;;;;;;19.67;8.18;;;;;;;13.57;44.68;102849.03;5053150;28;20106;-80
2022/01/11 09:05:49;;;;;;;14.82;5.18;;;;;;;13.57;44.76;102843.53;5052989;28;20045;-78
2022/01/11 09:08:15;;;;;;;14.45;4.43;;;;;;;13.57;44.69;102838.03;5052919;28;20115;-74
2022/01/11 09:10:40;;;;;;;15.90;5.03;;;;;;;13.56;44.67;102839.16;5053005;28;20535;-78
2022/01/11 09:13:06;;;;;;;20.02;4.55;;;;;;;13.65;44.59;102844.88;5052987;28;20116;-74
2022/01/11 09:15:32;;;;;;;16.13;4.57;;;;;;;13.70;44.38;102847.59;5052818;28;20162;-79
2022/01/11 09:17:58;;;;;;;14.52;4.75;;;;;;;13.66;44.10;102865.75;5052742;28;20033;-80
2022/01/11 09:20:24;;;;;;;17.15;5.40;;;;;;;13.55;44.39;102873.22;5052517;28;20087;-80
2022/01/11 09:22:50;;;;;;;15.85;5.05;;;;;;;13.58;44.51;102871.81;5052138;28;20036;-79
2022/01/11 09:25:16;;;;;;;16.40;4.72;;;;;;;13.65;44.26;102872.34;5052552;28;20106;-74
2022/01/11 09:27:43;;;;;;;15.70;5.18;;;;;;;13.65;44.22;102871.53;5051878;28;20397;-78
2022/01/11 09:30:11;;;;;;;19.17;6.20;;;;;;;13.56;44.42;102880.34;5051342;28;20025;-77
2022/01/11 09:32:38;;;;;;;14.40;4.93;;;;;;;13.53;44.59;102883.69;5051895;28;20032;-74
2022/01/11 09:35:06;;;;;;;22.05;5.32;;;;;;;13.59;44.61;102885.28;5052210;28;20025;-74
2022/01/11 09:37:32;;;;;;;13.45;4.57;;;;;;;13.62;44.15;102885.84;5052043;28;20491;-74
2022/01/11 09:39:58;;;;;;;24.45;5.63;;;;;;;13.59;44.40;102889.94;5052067;28;20159;-79
2022/01/11 09:42:25;;;;;;;16.02;5.68;;;;;;;13.60;44.15;102892.44;5050936;28;20044;-78
2022/01/11 09:44:51;;;;;;;19.08;5.65;;;;;;;13.56;44.43;102890.53;5034349;28;20444;-74
2022/01/11 09:47:17;;;;;;;15.23;5.00;;;;;;;13.55;44.42;102897.94;5052370;28;20033;-75
2022/01/11 09:49:44;;;;;;;14.25;4.85;;;;;;;13.60;44.26;102894.34;5052360;28;20489;-76
2022/01/11 09:52:11;;;;;;;19.83;5.68;;;;;;;13.49;44.23;102892.75;5052236;28;20455;-76
2022/01/11 09:54:40;;;;;;;14.70;4.72;;;;;;;13.55;44.13;102902.63;5052395;28;20048;-79
2022/01/11 09:57:05;;;;;;;13.45;5.03;;;;;;;13.55;44.14;102908.09;5052357;28;20025;-74
2022/01/11 09:59:32;;;;;;;39.22;6.05;;;;;;;13.52;44.12;102916.88;5052016;28;20025;-73
2022/01/11 10:01:58;;;;;;;24.83;5.50;;;;;;;13.46;44.35;102923.53;5051774;28;20387;-75
2022/01/11 10:04:26;;;;;;;12.73;4.75;;;;;;;13.54;44.30;102925.69;5051815;28;20475;-74
2022/01/11 10:06:55;;;;;;;16.08;4.47;;;;;;;13.58;44.22;102926.75;5051627;28;20412;-74
2022/01/11 10:09:22;;;;;;;17.05;4.82;;;;;;;13.54;44.29;102926.50;5051777;28;20053;-77
2022/01/11 10:11:54;;;;;;;13.60;5.35;;;;;;;13.56;44.20;102940.78;5051625;28;20083;-80
2022/01/11 10:14:26;;;;;;;19.55;6.00;;;;;;;13.59;44.03;102937.47;5051575;28;20025;-76
2022/01/11 10:17:12;;;;;;;19.55;6.05;;;;;;;13.50;44.07;102946.56;5049619;28;20087;-76
2022/01/11 10:19:43;;;;;;;22.23;5.57;;;;;;;13.58;44.09;102948.75;5050182;28;20029;-73
2022/01/11 10:22:11;;;;;;;16.20;4.70;;;;;;;13.61;43.93;102950.94;5051831;28;20059;-75
2022/01/11 10:24:42;;;;;;;15.20;4.88;;;;;;;13.61;44.16;102950.94;5051899;28;20055;-74
2022/01/11 10:27:32;;;;;;;21.27;5.65;;;;;;;13.66;44.41;102950.91;5052081;28;20032;-74
2022/01/11 10:30:03;;;;;;;16.15;5.45;;;;;;;13.69;44.38;102955.84;5051754;28;20096;-79
2022/01/11 10:32:31;;;;;;;20.17;4.68;;;;;;;13.78;44.21;102956.91;5051830;28;20029;-74
2022/01/11 10:35:01;;;;;;;15.80;5.22;;;;;;;13.92;44.26;102959.88;5052114;28;20426;-75
2022/01/11 10:37:33;;;;;;;18.55;5.25;;;;;;;14.05;44.19;102958.44;5051972;28;20021;-75
2022/01/11 10:40:15;;;;;;;22.23;5.68;;;;;;;14.12;44.25;102965.25;5052115;28;20040;-78
2022/01/11 10:42:56;;;;;;;22.20;5.20;;;;;;;14.24;43.99;102964.13;5055846;28;20104;-73
2022/01/11 10:45:45;;;;;;;22.30;5.55;;;;;;;14.30;44.35;102969.31;5055673;28;20028;-74
2022/01/11 10:48:17;;;;;;;20.00;4.82;;;;;;;14.15;44.99;102977.66;5055240;28;20083;-74
2022/01/11 10:50:52;;;;;;;27.20;5.20;;;;;;;14.51;44.18;102982.94;5055537;28;20491;-74
2022/01/11 10:53:21;;;;;;;19.52;5.18;;;;;;;14.57;44.72;102985.38;5055890;28;20443;-74
2022/01/11 10:55:52;;;;;;;20.17;6.07;;;;;;;14.64;44.49;102983.13;5055510;28;20025;-75
2022/01/11 10:58:18;;;;;;;16.23;4.88;;;;;;;14.75;44.44;102989.41;5055169;28;20032;-74
2022/01/11 11:00:52;;;;;;;19.10;4.75;;;;;;;14.87;44.00;102989.03;5055366;28;20627;-74
2022/01/11 11:03:27;;;;;;;16.75;5.15;;;;;;;14.79;44.54;102990.44;5055423;28;20379;-74
2022/01/11 11:05:55;;;;;;;17.27;6.13;;;;;;;14.90;44.55;102991.22;5055162;28;20025;-74
2022/01/11 11:08:23;;;;;;;19.33;4.70;;;;;;;14.98;44.40;102980.41;5055210;28;20029;-74
2022/01/11 11:11:00;;;;;;;22.50;6.85;;;;;;;15.12;44.19;102979.75;5054543;28;20028;-74
2022/01/11 11:13:35;;;;;;;20.77;5.13;;;;;;;15.18;44.16;102967.53;5052137;28;20555;-74
2022/01/11 11:16:12;;;;;;;23.02;5.13;;;;;;;15.24;44.16;102966.38;5054673;28;20040;-75
2022/01/11 11:18:39;;;;;;;19.35;4.88;;;;;;;15.30;44.13;102972.69;5054823;28;20033;-76